sensor_id;sensor_type;location;lat;lon;timestamp;temperature;humidity
1806;DHT22;901;48.142;11.516;2023-03-01T00:00:01;1.70;99.90
1806;DHT22;901;48.142;11.516;2023-03-01T00:02:28;1.60;99.90
1806;DHT22;901;48.142;11.516;2023-03-01T00:04:55;1.60;99.90
1806;DHT22;901;48.142;11.516;2023-03-01T00:07:22;1.40;99.90
1806;DHT22;901;48.142;11.516;2023-03-01T00:09:48;1.40;99.90
1806;DHT22;901;48.142;11.516;2023-03-01T00:12:17;1.40;99.90
1806;DHT22;901;48.142;11.516;2023-03-01T00:14:44;1.40;99.90
1806;DHT22;901;48.142;11.516;2023-03-01T00:17:11;1.50;99.90
1806;DHT22;901;48.142;11.516;2023-03-01T00:19:37;1.40;99.90
1806;DHT22;901;48.142;11.516;2023-03-01T00:22:04;1.70;99.90
1806;DHT22;901;48.142;11.516;2023-03-01T00:24:31;1.40;99.90
1806;DHT22;901;48.142;11.516;2023-03-01T00:26:58;1.50;99.90
1806;DHT22;901;48.142;11.516;2023-03-01T00:29:26;1.50;99.90
1806;DHT22;901;48.142;11.516;2023-03-01T00:31:53;1.50;99.90
1806;DHT22;901;48.142;11.516;2023-03-01T00:34:20;1.50;99.90
1806;DHT22;901;48.142;11.516;2023-03-01T00:36:46;1.60;99.90
1806;DHT22;901;48.142;11.516;2023-03-01T00:39:14;2.00;99.90
1806;DHT22;901;48.142;11.516;2023-03-01T00:41:42;1.60;99.90
1806;DHT22;901;48.142;11.516;2023-03-01T00:44:10;1.50;99.90
1806;DHT22;901;48.142;11.516;2023-03-01T00:46:38;1.50;99.90
1806;DHT22;901;48.142;11.516;2023-03-01T00:49:05;1.60;99.90
1806;DHT22;901;48.142;11.516;2023-03-01T00:51:32;1.50;99.90
1806;DHT22;901;48.142;11.516;2023-03-01T00:54:01;1.50;99.90
1806;DHT22;901;48.142;11.516;2023-03-01T00:56:29;1.50;99.90
1806;DHT22;901;48.142;11.516;2023-03-01T00:58:56;1.40;99.90
1806;DHT22;901;48.142;11.516;2023-03-01T01:01:25;1.50;99.90
1806;DHT22;901;48.142;11.516;2023-03-01T01:03:56;1.30;99.90
1806;DHT22;901;48.142;11.516;2023-03-01T01:06:25;1.40;99.90
1806;DHT22;901;48.142;11.516;2023-03-01T01:08:53;-0.80;99.90
1806;DHT22;901;48.142;11.516;2023-03-01T01:11:21;1.40;99.90
1806;DHT22;901;48.142;11.516;2023-03-01T01:13:49;1.40;99.90
1806;DHT22;901;48.142;11.516;2023-03-01T01:16:17;1.40;99.90
1806;DHT22;901;48.142;11.516;2023-03-01T01:18:45;1.30;99.90
1806;DHT22;901;48.142;11.516;2023-03-01T01:21:15;1.40;99.90
1806;DHT22;901;48.142;11.516;2023-03-01T01:23:43;1.30;99.90
1806;DHT22;901;48.142;11.516;2023-03-01T01:26:11;1.30;99.90
1806;DHT22;901;48.142;11.516;2023-03-01T01:28:39;1.40;99.90
1806;DHT22;901;48.142;11.516;2023-03-01T01:31:06;1.30;99.90
1806;DHT22;901;48.142;11.516;2023-03-01T01:33:33;1.30;99.90
1806;DHT22;901;48.142;11.516;2023-03-01T01:36:00;1.30;99.90
1806;DHT22;901;48.142;11.516;2023-03-01T01:38:29;1.30;99.90
1806;DHT22;901;48.142;11.516;2023-03-01T01:40:56;1.30;99.90
1806;DHT22;901;48.142;11.516;2023-03-01T01:43:25;1.50;99.90
1806;DHT22;901;48.142;11.516;2023-03-01T01:45:55;1.30;99.90
1806;DHT22;901;48.142;11.516;2023-03-01T01:48:26;1.30;99.90
1806;DHT22;901;48.142;11.516;2023-03-01T01:51:09;1.40;99.90
1806;DHT22;901;48.142;11.516;2023-03-01T01:53:39;1.30;99.90
1806;DHT22;901;48.142;11.516;2023-03-01T01:56:09;1.80;99.90
1806;DHT22;901;48.142;11.516;2023-03-01T01:58:37;1.20;99.90
1806;DHT22;901;48.142;11.516;2023-03-01T02:01:05;1.30;99.90
1806;DHT22;901;48.142;11.516;2023-03-01T02:03:33;1.10;99.90
1806;DHT22;901;48.142;11.516;2023-03-01T02:06:06;1.30;99.90
1806;DHT22;901;48.142;11.516;2023-03-01T02:08:36;1.20;99.90
1806;DHT22;901;48.142;11.516;2023-03-01T02:11:05;1.20;99.90
1806;DHT22;901;48.142;11.516;2023-03-01T02:13:33;1.30;99.90
1806;DHT22;901;48.142;11.516;2023-03-01T02:16:03;1.50;99.90
1806;DHT22;901;48.142;11.516;2023-03-01T02:18:29;1.60;99.90
1806;DHT22;901;48.142;11.516;2023-03-01T02:23:46;1.30;99.90
1806;DHT22;901;48.142;11.516;2023-03-01T02:26:18;1.30;99.90
1806;DHT22;901;48.142;11.516;2023-03-01T02:28:48;2.50;99.90
1806;DHT22;901;48.142;11.516;2023-03-01T02:31:18;1.20;99.90
1806;DHT22;901;48.142;11.516;2023-03-01T02:34:04;1.10;99.90
1806;DHT22;901;48.142;11.516;2023-03-01T02:36:35;2.10;99.90
1806;DHT22;901;48.142;11.516;2023-03-01T02:39:05;1.10;99.90
1806;DHT22;901;48.142;11.516;2023-03-01T02:41:35;1.10;99.90
1806;DHT22;901;48.142;11.516;2023-03-01T02:44:05;1.10;99.90
1806;DHT22;901;48.142;11.516;2023-03-01T02:46:31;1.10;99.90
1806;DHT22;901;48.142;11.516;2023-03-01T02:48:59;1.30;99.90
1806;DHT22;901;48.142;11.516;2023-03-01T02:51:40;1.20;99.90
1806;DHT22;901;48.142;11.516;2023-03-01T02:54:19;1.20;99.90
1806;DHT22;901;48.142;11.516;2023-03-01T02:56:48;1.10;99.90
1806;DHT22;901;48.142;11.516;2023-03-01T02:59:19;1.10;99.90
1806;DHT22;901;48.142;11.516;2023-03-01T03:01:46;1.00;99.90
1806;DHT22;901;48.142;11.516;2023-03-01T03:04:15;1.00;99.90
1806;DHT22;901;48.142;11.516;2023-03-01T03:06:43;1.00;99.90
1806;DHT22;901;48.142;11.516;2023-03-01T03:09:10;0.90;99.90
1806;DHT22;901;48.142;11.516;2023-03-01T03:11:37;1.00;99.90
1806;DHT22;901;48.142;11.516;2023-03-01T03:14:05;0.90;99.90
1806;DHT22;901;48.142;11.516;2023-03-01T03:16:40;1.00;99.90
1806;DHT22;901;48.142;11.516;2023-03-01T03:19:07;1.00;99.90
1806;DHT22;901;48.142;11.516;2023-03-01T03:21:34;1.10;99.90
1806;DHT22;901;48.142;11.516;2023-03-01T03:24:01;0.90;99.90
1806;DHT22;901;48.142;11.516;2023-03-01T03:26:28;0.90;99.90
1806;DHT22;901;48.142;11.516;2023-03-01T03:28:55;0.90;99.90
1806;DHT22;901;48.142;11.516;2023-03-01T03:31:22;1.00;99.90
1806;DHT22;901;48.142;11.516;2023-03-01T03:33:51;0.90;99.90
1806;DHT22;901;48.142;11.516;2023-03-01T03:36:18;0.90;99.90
1806;DHT22;901;48.142;11.516;2023-03-01T03:38:45;0.80;99.90
1806;DHT22;901;48.142;11.516;2023-03-01T03:41:13;0.90;99.90
1806;DHT22;901;48.142;11.516;2023-03-01T03:43:41;0.80;99.90
1806;DHT22;901;48.142;11.516;2023-03-01T03:46:09;0.90;99.90
1806;DHT22;901;48.142;11.516;2023-03-01T03:48:40;0.90;99.90
1806;DHT22;901;48.142;11.516;2023-03-01T03:51:10;1.00;99.90
1806;DHT22;901;48.142;11.516;2023-03-01T03:53:37;1.00;99.90
1806;DHT22;901;48.142;11.516;2023-03-01T03:56:05;0.90;99.90
1806;DHT22;901;48.142;11.516;2023-03-01T03:58:32;0.80;99.90
1806;DHT22;901;48.142;11.516;2023-03-01T04:00:59;0.70;99.90
1806;DHT22;901;48.142;11.516;2023-03-01T04:03:28;0.70;99.90
1806;DHT22;901;48.142;11.516;2023-03-01T04:05:57;0.60;99.90
1806;DHT22;901;48.142;11.516;2023-03-01T04:08:26;0.70;99.90
1806;DHT22;901;48.142;11.516;2023-03-01T04:10:57;0.50;99.90
1806;DHT22;901;48.142;11.516;2023-03-01T04:13:24;0.60;99.90
1806;DHT22;901;48.142;11.516;2023-03-01T04:15:52;0.40;99.90
1806;DHT22;901;48.142;11.516;2023-03-01T04:18:21;0.40;99.90
1806;DHT22;901;48.142;11.516;2023-03-01T04:20:48;0.40;99.90
1806;DHT22;901;48.142;11.516;2023-03-01T04:23:19;0.40;99.90
1806;DHT22;901;48.142;11.516;2023-03-01T04:25:49;0.40;99.90
1806;DHT22;901;48.142;11.516;2023-03-01T04:28:19;0.40;99.90
1806;DHT22;901;48.142;11.516;2023-03-01T04:30:46;0.50;99.90
1806;DHT22;901;48.142;11.516;2023-03-01T04:33:13;0.40;99.90
1806;DHT22;901;48.142;11.516;2023-03-01T04:35:40;0.50;99.90
1806;DHT22;901;48.142;11.516;2023-03-01T04:38:07;0.50;99.90
1806;DHT22;901;48.142;11.516;2023-03-01T04:40:34;0.40;99.90
1806;DHT22;901;48.142;11.516;2023-03-01T04:43:03;0.40;99.90
1806;DHT22;901;48.142;11.516;2023-03-01T04:45:32;0.40;99.90
1806;DHT22;901;48.142;11.516;2023-03-01T04:48:00;0.30;99.90
1806;DHT22;901;48.142;11.516;2023-03-01T04:50:26;0.30;99.90
1806;DHT22;901;48.142;11.516;2023-03-01T04:52:53;0.40;99.90
1806;DHT22;901;48.142;11.516;2023-03-01T04:55:24;0.20;99.90
1806;DHT22;901;48.142;11.516;2023-03-01T04:57:51;0.30;99.90
1806;DHT22;901;48.142;11.516;2023-03-01T05:00:20;0.10;99.90
1806;DHT22;901;48.142;11.516;2023-03-01T05:02:49;0.20;99.90
1806;DHT22;901;48.142;11.516;2023-03-01T05:05:19;0.20;99.90
1806;DHT22;901;48.142;11.516;2023-03-01T05:07:51;0.10;99.90
1806;DHT22;901;48.142;11.516;2023-03-01T05:10:18;0.00;99.90
1806;DHT22;901;48.142;11.516;2023-03-01T05:12:44;0.00;99.90
1806;DHT22;901;48.142;11.516;2023-03-01T05:15:12;0.10;99.90
1806;DHT22;901;48.142;11.516;2023-03-01T05:17:41;-0.10;99.90
1806;DHT22;901;48.142;11.516;2023-03-01T05:20:09;0.00;99.90
1806;DHT22;901;48.142;11.516;2023-03-01T05:22:36;-0.10;99.90
1806;DHT22;901;48.142;11.516;2023-03-01T05:25:04;-0.20;99.90
1806;DHT22;901;48.142;11.516;2023-03-01T05:27:32;-0.10;99.90
1806;DHT22;901;48.142;11.516;2023-03-01T05:29:59;-0.10;99.90
1806;DHT22;901;48.142;11.516;2023-03-01T05:32:41;-0.10;99.90
1806;DHT22;901;48.142;11.516;2023-03-01T05:35:10;-0.10;99.90
1806;DHT22;901;48.142;11.516;2023-03-01T05:37:39;-0.20;99.90
1806;DHT22;901;48.142;11.516;2023-03-01T05:40:08;-0.30;99.90
1806;DHT22;901;48.142;11.516;2023-03-01T05:42:42;-0.30;99.90
1806;DHT22;901;48.142;11.516;2023-03-01T05:45:09;-0.30;99.90
1806;DHT22;901;48.142;11.516;2023-03-01T05:47:38;-0.20;99.90
1806;DHT22;901;48.142;11.516;2023-03-01T05:50:07;-0.20;99.90
1806;DHT22;901;48.142;11.516;2023-03-01T05:52:34;-0.20;99.90
1806;DHT22;901;48.142;11.516;2023-03-01T05:55:00;-0.20;99.90
1806;DHT22;901;48.142;11.516;2023-03-01T05:57:28;-0.30;99.90
1806;DHT22;901;48.142;11.516;2023-03-01T05:59:55;-0.20;99.90
1806;DHT22;901;48.142;11.516;2023-03-01T06:02:22;-0.30;99.90
1806;DHT22;901;48.142;11.516;2023-03-01T06:04:48;-0.20;99.90
1806;DHT22;901;48.142;11.516;2023-03-01T06:07:17;-0.20;99.90
1806;DHT22;901;48.142;11.516;2023-03-01T06:09:43;-0.20;99.90
1806;DHT22;901;48.142;11.516;2023-03-01T06:12:10;-0.20;99.90
1806;DHT22;901;48.142;11.516;2023-03-01T06:14:37;-0.20;99.90
1806;DHT22;901;48.142;11.516;2023-03-01T06:17:04;-0.30;99.90
1806;DHT22;901;48.142;11.516;2023-03-01T06:19:31;-0.10;99.90
1806;DHT22;901;48.142;11.516;2023-03-01T06:21:57;-0.10;99.90
1806;DHT22;901;48.142;11.516;2023-03-01T06:24:26;0.40;99.90
1806;DHT22;901;48.142;11.516;2023-03-01T06:26:54;0.00;99.90
1806;DHT22;901;48.142;11.516;2023-03-01T06:29:21;0.10;99.90
1806;DHT22;901;48.142;11.516;2023-03-01T06:31:48;0.10;99.90
1806;DHT22;901;48.142;11.516;2023-03-01T06:34:14;0.00;99.90
1806;DHT22;901;48.142;11.516;2023-03-01T06:36:42;0.10;99.90
1806;DHT22;901;48.142;11.516;2023-03-01T06:39:08;0.20;99.90
1806;DHT22;901;48.142;11.516;2023-03-01T06:41:37;0.00;99.90
1806;DHT22;901;48.142;11.516;2023-03-01T06:44:04;0.00;99.90
1806;DHT22;901;48.142;11.516;2023-03-01T06:46:30;0.00;99.90
1806;DHT22;901;48.142;11.516;2023-03-01T06:48:57;-0.10;99.90
1806;DHT22;901;48.142;11.516;2023-03-01T06:51:25;0.10;99.90
1806;DHT22;901;48.142;11.516;2023-03-01T06:53:52;0.10;99.90
1806;DHT22;901;48.142;11.516;2023-03-01T06:56:18;0.20;99.90
1806;DHT22;901;48.142;11.516;2023-03-01T06:58:47;0.20;99.90
1806;DHT22;901;48.142;11.516;2023-03-01T07:01:13;-0.10;99.90
1806;DHT22;901;48.142;11.516;2023-03-01T07:03:41;0.10;99.90
1806;DHT22;901;48.142;11.516;2023-03-01T07:06:09;0.00;99.90
1806;DHT22;901;48.142;11.516;2023-03-01T07:08:36;0.00;99.90
1806;DHT22;901;48.142;11.516;2023-03-01T07:11:03;0.10;99.90
1806;DHT22;901;48.142;11.516;2023-03-01T07:13:31;0.00;99.90
1806;DHT22;901;48.142;11.516;2023-03-01T07:15:59;0.10;99.90
1806;DHT22;901;48.142;11.516;2023-03-01T07:18:26;0.00;99.90
1806;DHT22;901;48.142;11.516;2023-03-01T07:20:53;0.10;99.90
1806;DHT22;901;48.142;11.516;2023-03-01T07:23:20;0.10;99.90
1806;DHT22;901;48.142;11.516;2023-03-01T07:25:51;0.10;99.90
1806;DHT22;901;48.142;11.516;2023-03-01T07:28:19;0.10;99.90
1806;DHT22;901;48.142;11.516;2023-03-01T07:30:46;0.20;99.90
1806;DHT22;901;48.142;11.516;2023-03-01T07:33:14;0.20;99.90
1806;DHT22;901;48.142;11.516;2023-03-01T07:35:41;0.30;99.90
1806;DHT22;901;48.142;11.516;2023-03-01T07:38:07;0.30;99.90
1806;DHT22;901;48.142;11.516;2023-03-01T07:40:34;0.30;99.90
1806;DHT22;901;48.142;11.516;2023-03-01T07:43:02;0.30;99.90
1806;DHT22;901;48.142;11.516;2023-03-01T07:45:29;0.30;99.90
1806;DHT22;901;48.142;11.516;2023-03-01T07:47:56;0.40;99.90
1806;DHT22;901;48.142;11.516;2023-03-01T07:50:24;0.50;99.90
1806;DHT22;901;48.142;11.516;2023-03-01T07:52:51;0.70;99.90
1806;DHT22;901;48.142;11.516;2023-03-01T07:55:17;0.80;99.90
1806;DHT22;901;48.142;11.516;2023-03-01T07:57:45;0.90;99.90
1806;DHT22;901;48.142;11.516;2023-03-01T08:00:13;0.90;99.90
1806;DHT22;901;48.142;11.516;2023-03-01T08:02:40;1.00;99.90
1806;DHT22;901;48.142;11.516;2023-03-01T08:05:08;1.10;99.90
1806;DHT22;901;48.142;11.516;2023-03-01T08:07:36;1.10;99.90
1806;DHT22;901;48.142;11.516;2023-03-01T08:10:04;1.20;99.90
1806;DHT22;901;48.142;11.516;2023-03-01T08:12:31;1.20;99.90
1806;DHT22;901;48.142;11.516;2023-03-01T08:14:58;1.20;99.90
1806;DHT22;901;48.142;11.516;2023-03-01T08:17:24;1.60;99.90
1806;DHT22;901;48.142;11.516;2023-03-01T08:19:51;1.10;99.90
1806;DHT22;901;48.142;11.516;2023-03-01T08:22:18;1.10;99.90
1806;DHT22;901;48.142;11.516;2023-03-01T08:24:46;1.20;99.90
1806;DHT22;901;48.142;11.516;2023-03-01T08:27:14;1.30;99.90
1806;DHT22;901;48.142;11.516;2023-03-01T08:29:41;1.40;99.90
1806;DHT22;901;48.142;11.516;2023-03-01T08:32:08;1.60;99.90
1806;DHT22;901;48.142;11.516;2023-03-01T08:34:35;1.50;99.90
1806;DHT22;901;48.142;11.516;2023-03-01T08:37:02;1.40;99.90
1806;DHT22;901;48.142;11.516;2023-03-01T08:39:29;1.50;99.90
1806;DHT22;901;48.142;11.516;2023-03-01T08:41:57;1.40;99.90
1806;DHT22;901;48.142;11.516;2023-03-01T08:44:24;1.50;99.90
1806;DHT22;901;48.142;11.516;2023-03-01T08:46:51;1.50;99.90
1806;DHT22;901;48.142;11.516;2023-03-01T08:49:19;1.70;99.90
1806;DHT22;901;48.142;11.516;2023-03-01T08:51:47;1.80;99.90
1806;DHT22;901;48.142;11.516;2023-03-01T08:54:16;1.90;99.90
1806;DHT22;901;48.142;11.516;2023-03-01T08:56:44;1.90;99.90
1806;DHT22;901;48.142;11.516;2023-03-01T08:59:13;2.00;99.90
1806;DHT22;901;48.142;11.516;2023-03-01T09:01:40;2.00;99.90
1806;DHT22;901;48.142;11.516;2023-03-01T09:04:09;2.00;99.90
1806;DHT22;901;48.142;11.516;2023-03-01T09:06:35;2.50;99.90
1806;DHT22;901;48.142;11.516;2023-03-01T09:09:04;2.50;99.90
1806;DHT22;901;48.142;11.516;2023-03-01T09:11:31;2.30;99.90
1806;DHT22;901;48.142;11.516;2023-03-01T09:13:58;2.40;99.90
1806;DHT22;901;48.142;11.516;2023-03-01T09:16:26;2.30;99.90
1806;DHT22;901;48.142;11.516;2023-03-01T09:18:55;2.30;99.90
1806;DHT22;901;48.142;11.516;2023-03-01T09:21:23;2.30;99.90
1806;DHT22;901;48.142;11.516;2023-03-01T09:23:50;2.20;99.90
1806;DHT22;901;48.142;11.516;2023-03-01T09:26:20;2.10;99.90
1806;DHT22;901;48.142;11.516;2023-03-01T09:28:48;2.20;99.90
1806;DHT22;901;48.142;11.516;2023-03-01T09:31:17;2.20;99.90
1806;DHT22;901;48.142;11.516;2023-03-01T09:33:47;2.40;99.90
1806;DHT22;901;48.142;11.516;2023-03-01T09:36:16;1.60;99.90
1806;DHT22;901;48.142;11.516;2023-03-01T09:38:44;2.10;99.90
1806;DHT22;901;48.142;11.516;2023-03-01T09:41:24;2.10;99.90
1806;DHT22;901;48.142;11.516;2023-03-01T09:43:57;2.30;99.90
1806;DHT22;901;48.142;11.516;2023-03-01T09:46:26;2.30;99.90
1806;DHT22;901;48.142;11.516;2023-03-01T09:48:57;2.40;99.90
1806;DHT22;901;48.142;11.516;2023-03-01T09:51:29;2.60;99.90
1806;DHT22;901;48.142;11.516;2023-03-01T09:53:56;2.50;99.90
1806;DHT22;901;48.142;11.516;2023-03-01T09:56:29;2.50;99.90
1806;DHT22;901;48.142;11.516;2023-03-01T09:59:03;2.60;99.90
1806;DHT22;901;48.142;11.516;2023-03-01T10:01:35;2.70;99.90
1806;DHT22;901;48.142;11.516;2023-03-01T10:04:19;2.70;99.90
1806;DHT22;901;48.142;11.516;2023-03-01T10:06:58;2.90;99.90
1806;DHT22;901;48.142;11.516;2023-03-01T10:09:28;3.30;99.90
1806;DHT22;901;48.142;11.516;2023-03-01T10:11:56;3.30;99.90
1806;DHT22;901;48.142;11.516;2023-03-01T10:14:36;3.60;99.90
1806;DHT22;901;48.142;11.516;2023-03-01T10:17:12;3.60;99.90
1806;DHT22;901;48.142;11.516;2023-03-01T10:19:44;3.60;99.90
1806;DHT22;901;48.142;11.516;2023-03-01T10:22:15;3.70;99.90
1806;DHT22;901;48.142;11.516;2023-03-01T10:24:42;3.50;99.90
1806;DHT22;901;48.142;11.516;2023-03-01T10:27:16;3.30;99.90
1806;DHT22;901;48.142;11.516;2023-03-01T10:29:49;3.40;99.90
1806;DHT22;901;48.142;11.516;2023-03-01T10:32:18;3.50;99.90
1806;DHT22;901;48.142;11.516;2023-03-01T10:34:48;3.50;99.90
1806;DHT22;901;48.142;11.516;2023-03-01T10:37:17;3.60;99.90
1806;DHT22;901;48.142;11.516;2023-03-01T10:40:02;3.90;99.90
1806;DHT22;901;48.142;11.516;2023-03-01T10:42:35;3.70;99.90
1806;DHT22;901;48.142;11.516;2023-03-01T10:45:17;3.80;99.90
1806;DHT22;901;48.142;11.516;2023-03-01T10:47:44;3.90;99.90
1806;DHT22;901;48.142;11.516;2023-03-01T10:50:20;4.20;99.90
1806;DHT22;901;48.142;11.516;2023-03-01T10:52:57;4.20;99.90
1806;DHT22;901;48.142;11.516;2023-03-01T10:55:27;4.00;99.90
1806;DHT22;901;48.142;11.516;2023-03-01T10:58:08;3.50;99.90
1806;DHT22;901;48.142;11.516;2023-03-01T11:00:48;3.30;99.90
1806;DHT22;901;48.142;11.516;2023-03-01T11:03:18;2.40;99.90
1806;DHT22;901;48.142;11.516;2023-03-01T11:06:02;2.70;99.90
1806;DHT22;901;48.142;11.516;2023-03-01T11:08:33;2.70;99.90
1806;DHT22;901;48.142;11.516;2023-03-01T11:11:21;2.40;99.90
1806;DHT22;901;48.142;11.516;2023-03-01T11:13:55;2.70;99.90
1806;DHT22;901;48.142;11.516;2023-03-01T11:16:40;2.70;99.90
1806;DHT22;901;48.142;11.516;2023-03-01T11:19:19;2.80;99.90
1806;DHT22;901;48.142;11.516;2023-03-01T11:21:57;3.00;99.90
1806;DHT22;901;48.142;11.516;2023-03-01T11:24:39;3.00;99.90
1806;DHT22;901;48.142;11.516;2023-03-01T11:27:17;3.00;99.90
1806;DHT22;901;48.142;11.516;2023-03-01T11:29:46;3.00;99.90
1806;DHT22;901;48.142;11.516;2023-03-01T11:32:16;3.10;99.90
1806;DHT22;901;48.142;11.516;2023-03-01T11:34:48;3.60;99.90
1806;DHT22;901;48.142;11.516;2023-03-01T11:37:28;3.40;99.90
1806;DHT22;901;48.142;11.516;2023-03-01T11:40:07;3.50;99.90
1806;DHT22;901;48.142;11.516;2023-03-01T11:42:46;3.60;99.90
1806;DHT22;901;48.142;11.516;2023-03-01T11:45:13;3.90;99.90
1806;DHT22;901;48.142;11.516;2023-03-01T11:47:51;3.70;99.90
1806;DHT22;901;48.142;11.516;2023-03-01T11:50:28;3.90;99.90
1806;DHT22;901;48.142;11.516;2023-03-01T11:53:16;4.50;99.90
1806;DHT22;901;48.142;11.516;2023-03-01T11:55:54;4.10;99.90
1806;DHT22;901;48.142;11.516;2023-03-01T11:58:40;4.70;99.90
1806;DHT22;901;48.142;11.516;2023-03-01T12:01:20;4.40;99.90
1806;DHT22;901;48.142;11.516;2023-03-01T12:04:07;4.40;99.90
1806;DHT22;901;48.142;11.516;2023-03-01T12:06:50;4.60;99.90
1806;DHT22;901;48.142;11.516;2023-03-01T12:09:38;4.80;99.90
1806;DHT22;901;48.142;11.516;2023-03-01T12:12:31;4.80;99.90
1806;DHT22;901;48.142;11.516;2023-03-01T12:15:32;4.90;99.90
1806;DHT22;901;48.142;11.516;2023-03-01T12:18:24;4.80;99.90
1806;DHT22;901;48.142;11.516;2023-03-01T12:20:59;4.90;99.90
1806;DHT22;901;48.142;11.516;2023-03-01T12:23:59;4.90;99.90
1806;DHT22;901;48.142;11.516;2023-03-01T12:26:33;4.80;99.90
1806;DHT22;901;48.142;11.516;2023-03-01T12:29:09;5.00;99.90
1806;DHT22;901;48.142;11.516;2023-03-01T12:32:24;5.10;99.90
1806;DHT22;901;48.142;11.516;2023-03-01T12:38:19;5.20;99.90
1806;DHT22;901;48.142;11.516;2023-03-01T12:41:11;5.10;99.90
1806;DHT22;901;48.142;11.516;2023-03-01T12:43:53;5.10;99.90
1806;DHT22;901;48.142;11.516;2023-03-01T12:46:31;4.90;99.90
1806;DHT22;901;48.142;11.516;2023-03-01T12:49:08;4.80;99.90
1806;DHT22;901;48.142;11.516;2023-03-01T12:51:38;4.90;99.90
1806;DHT22;901;48.142;11.516;2023-03-01T12:54:14;4.80;99.90
1806;DHT22;901;48.142;11.516;2023-03-01T12:56:42;4.70;99.90
1806;DHT22;901;48.142;11.516;2023-03-01T12:59:24;5.10;99.90
1806;DHT22;901;48.142;11.516;2023-03-01T13:02:00;4.80;99.90
1806;DHT22;901;48.142;11.516;2023-03-01T13:04:35;4.80;99.90
1806;DHT22;901;48.142;11.516;2023-03-01T13:07:15;4.70;99.90
1806;DHT22;901;48.142;11.516;2023-03-01T13:09:52;4.80;99.90
1806;DHT22;901;48.142;11.516;2023-03-01T13:12:43;4.90;99.90
1806;DHT22;901;48.142;11.516;2023-03-01T13:15:30;4.90;99.90
1806;DHT22;901;48.142;11.516;2023-03-01T13:17:58;4.90;99.90
1806;DHT22;901;48.142;11.516;2023-03-01T13:20:30;5.40;99.90
1806;DHT22;901;48.142;11.516;2023-03-01T13:23:07;4.80;99.90
1806;DHT22;901;48.142;11.516;2023-03-01T13:25:35;5.00;99.90
1806;DHT22;901;48.142;11.516;2023-03-01T13:32:00;5.20;99.90
1806;DHT22;901;48.142;11.516;2023-03-01T13:34:48;5.30;99.90
1806;DHT22;901;48.142;11.516;2023-03-01T13:37:25;5.40;99.90
1806;DHT22;901;48.142;11.516;2023-03-01T13:39:55;5.40;99.90
1806;DHT22;901;48.142;11.516;2023-03-01T13:42:41;5.30;99.90
1806;DHT22;901;48.142;11.516;2023-03-01T13:45:32;5.40;99.90
1806;DHT22;901;48.142;11.516;2023-03-01T13:48:03;5.50;99.90
1806;DHT22;901;48.142;11.516;2023-03-01T13:50:47;5.60;99.90
1806;DHT22;901;48.142;11.516;2023-03-01T13:53:18;5.60;99.90
1806;DHT22;901;48.142;11.516;2023-03-01T13:55:47;6.50;99.90
1806;DHT22;901;48.142;11.516;2023-03-01T13:58:19;5.70;99.90
1806;DHT22;901;48.142;11.516;2023-03-01T14:00:54;5.60;99.90
1806;DHT22;901;48.142;11.516;2023-03-01T14:03:22;5.70;99.90
1806;DHT22;901;48.142;11.516;2023-03-01T14:06:05;6.20;99.90
1806;DHT22;901;48.142;11.516;2023-03-01T14:08:36;5.50;99.90
1806;DHT22;901;48.142;11.516;2023-03-01T14:11:35;5.80;99.90
1806;DHT22;901;48.142;11.516;2023-03-01T14:20:14;6.00;99.90
1806;DHT22;901;48.142;11.516;2023-03-01T14:22:43;6.10;99.90
1806;DHT22;901;48.142;11.516;2023-03-01T14:25:25;6.10;99.90
1806;DHT22;901;48.142;11.516;2023-03-01T14:27:59;6.00;99.90
1806;DHT22;901;48.142;11.516;2023-03-01T14:30:30;6.00;99.90
1806;DHT22;901;48.142;11.516;2023-03-01T14:32:59;5.90;99.90
1806;DHT22;901;48.142;11.516;2023-03-01T14:35:30;6.30;99.90
1806;DHT22;901;48.142;11.516;2023-03-01T14:37:57;5.90;99.90
1806;DHT22;901;48.142;11.516;2023-03-01T14:40:27;6.10;99.90
1806;DHT22;901;48.142;11.516;2023-03-01T14:42:56;6.00;99.90
1806;DHT22;901;48.142;11.516;2023-03-01T14:45:26;6.10;99.90
1806;DHT22;901;48.142;11.516;2023-03-01T14:47:53;6.00;99.90
1806;DHT22;901;48.142;11.516;2023-03-01T14:50:26;5.90;99.90
1806;DHT22;901;48.142;11.516;2023-03-01T14:52:58;5.90;99.90
1806;DHT22;901;48.142;11.516;2023-03-01T14:55:28;6.00;99.90
1806;DHT22;901;48.142;11.516;2023-03-01T14:57:56;6.10;99.90
1806;DHT22;901;48.142;11.516;2023-03-01T15:00:26;6.40;99.90
1806;DHT22;901;48.142;11.516;2023-03-01T15:02:55;6.20;99.90
1806;DHT22;901;48.142;11.516;2023-03-01T15:05:26;6.30;99.90
1806;DHT22;901;48.142;11.516;2023-03-01T15:07:57;6.40;99.90
1806;DHT22;901;48.142;11.516;2023-03-01T15:10:26;6.40;99.90
1806;DHT22;901;48.142;11.516;2023-03-01T15:12:53;6.30;99.90
1806;DHT22;901;48.142;11.516;2023-03-01T15:15:33;6.30;99.90
1806;DHT22;901;48.142;11.516;2023-03-01T15:18:02;6.20;99.90
1806;DHT22;901;48.142;11.516;2023-03-01T15:20:31;6.30;99.90
1806;DHT22;901;48.142;11.516;2023-03-01T15:23:03;6.20;99.90
1806;DHT22;901;48.142;11.516;2023-03-01T15:25:31;6.10;99.90
1806;DHT22;901;48.142;11.516;2023-03-01T15:28:00;6.20;99.90
1806;DHT22;901;48.142;11.516;2023-03-01T15:30:30;6.20;99.90
1806;DHT22;901;48.142;11.516;2023-03-01T15:33:27;6.30;99.90
1806;DHT22;901;48.142;11.516;2023-03-01T15:35:56;6.10;99.90
1806;DHT22;901;48.142;11.516;2023-03-01T15:38:31;6.80;99.90
1806;DHT22;901;48.142;11.516;2023-03-01T15:41:00;6.10;99.90
1806;DHT22;901;48.142;11.516;2023-03-01T15:43:38;6.10;99.90
1806;DHT22;901;48.142;11.516;2023-03-01T15:46:06;6.20;99.90
1806;DHT22;901;48.142;11.516;2023-03-01T15:48:39;6.20;99.90
1806;DHT22;901;48.142;11.516;2023-03-01T15:51:12;6.10;99.90
1806;DHT22;901;48.142;11.516;2023-03-01T15:53:41;6.10;99.90
1806;DHT22;901;48.142;11.516;2023-03-01T15:56:09;6.20;99.90
1806;DHT22;901;48.142;11.516;2023-03-01T15:58:36;6.10;99.90
1806;DHT22;901;48.142;11.516;2023-03-01T16:01:03;6.10;99.90
1806;DHT22;901;48.142;11.516;2023-03-01T16:03:29;6.10;99.90
1806;DHT22;901;48.142;11.516;2023-03-01T16:05:57;6.50;99.90
1806;DHT22;901;48.142;11.516;2023-03-01T16:08:24;6.30;99.90
1806;DHT22;901;48.142;11.516;2023-03-01T16:10:52;6.20;99.90
1806;DHT22;901;48.142;11.516;2023-03-01T16:13:20;6.20;99.90
1806;DHT22;901;48.142;11.516;2023-03-01T16:15:46;6.20;99.90
1806;DHT22;901;48.142;11.516;2023-03-01T16:18:13;5.50;99.90
1806;DHT22;901;48.142;11.516;2023-03-01T16:20:40;6.10;99.90
1806;DHT22;901;48.142;11.516;2023-03-01T16:23:09;6.00;99.90
1806;DHT22;901;48.142;11.516;2023-03-01T16:25:37;6.00;99.90
1806;DHT22;901;48.142;11.516;2023-03-01T16:28:06;6.00;99.90
1806;DHT22;901;48.142;11.516;2023-03-01T16:30:36;6.00;99.90
1806;DHT22;901;48.142;11.516;2023-03-01T16:33:03;6.00;99.90
1806;DHT22;901;48.142;11.516;2023-03-01T16:35:32;6.00;99.90
1806;DHT22;901;48.142;11.516;2023-03-01T16:37:59;5.90;99.90
1806;DHT22;901;48.142;11.516;2023-03-01T16:40:28;5.90;99.90
1806;DHT22;901;48.142;11.516;2023-03-01T16:42:56;5.90;99.90
1806;DHT22;901;48.142;11.516;2023-03-01T16:45:27;5.90;99.90
1806;DHT22;901;48.142;11.516;2023-03-01T16:47:54;5.70;99.90
1806;DHT22;901;48.142;11.516;2023-03-01T16:50:21;5.70;99.90
1806;DHT22;901;48.142;11.516;2023-03-01T16:52:48;5.70;99.90
1806;DHT22;901;48.142;11.516;2023-03-01T16:55:14;5.70;99.90